Airfield :







YOU CAN JOIN US ON...

 
LOGIN :

Register | Disclaimer

   EN    FR    IT 

 









Legend :    VFR   Marginal VFR   IFR   Intensive IFR   Very Intensive IFR
Visi :
Ceiling :
>= 8 km
>= 3000ft
5 to 8 km
1000 to 3000 ft
1500m to 5 km
500 to 1000 ft
800 to 1500m
200 to 500 ft
< 800m
< 200 ft
Symbols :   Thunderstorms  Fog  Heavy snow  Heavy precipitations  Wind > 20 kt






- Airport Elevation : 141 ft
- IATA code : YQI


CYQI - Yarmouth

CURRENT METAR :
  • 060700Z 23009KT 3/8SM FG VV002 17/17 A2999 RMK FG8 SLP156 DENSITY ALT 300FT

EXPIRED METARs :
  • 060614Z 23008G18KT 1/2SM FG VV002 17/17 A2999 RMK FG8 SLP158 DENSITY ALT 300FT
  • 060600Z 24009G16KT 3/4SM BR VV002 17/17 A2999 RMK FG8 SLP157 DENSITY ALT 400FT
  • 060537Z 24011KT 3/4SM BR VV002 17/17 A3000 RMK FG8 SLP159 DENSITY ALT 300FT
  • 060500Z 24013G21KT 1/2SM FG VV002 18/18 A2999 RMK FG8 SLP158 DENSITY ALT 400FT

TAF TAF CYQI
Valid from the 06 at 06:00 until the 06 at 18:00 UTC


060538Z 0606/0618 23010G20KT 1/2SM FG VV002
FM061000 26010KT 1/2SM FG VV002
BECMG 0610/0612 P6SM NSW FEW005
FM061200 30010KT P6SM FEW005
FM061500 28012KT P6SM FEW020 RMK NXT FCST BY 061200Z
CZQM FIR / North America



MET'MAP, your aeronautical weather chart ! - Copyright ORBIFLY December 2007 - Disclaimer

ORBIFLY MET'MAP TEAM :

Programming & Development : Alexandra Zaïnal
Concept & original design : Baudouin d'Aumeries
Assistance for programming : Marc-Olivier Méhu
Technical & hardware support : Manuel Goepfert

Contact : metmap@orbifly.com




SOURCES & CREDITS :

   NOAA